createdAt,value
2019-04-04T00:01:11.493Z,76.37
2019-04-04T00:03:42.901Z,82.90
2019-04-04T00:06:14.206Z,75.57
2019-04-04T00:08:45.543Z,74.05
2019-04-04T00:11:16.706Z,71.57
2019-04-04T00:13:48.701Z,68.62
2019-04-04T00:16:20.735Z,75.35
2019-04-04T00:18:52.732Z,74.80
2019-04-04T00:21:26.170Z,76.55
2019-04-04T00:23:58.092Z,82.85
2019-04-04T00:26:32.042Z,82.88
2019-04-04T00:29:06.487Z,74.58
2019-04-04T00:31:39.056Z,61.85
2019-04-04T00:34:10.416Z,66.42
2019-04-04T00:36:41.989Z,58.13
2019-04-04T00:39:14.045Z,56.15
2019-04-04T00:41:54.792Z,61.42
2019-04-04T00:44:30.698Z,56.95
2019-04-04T00:47:03.785Z,55.33
2019-04-04T00:49:35.554Z,54.15
2019-04-04T00:54:47.309Z,55.45
2019-04-04T00:57:31.017Z,53.02
2019-04-04T01:00:02.604Z,54.33
2019-04-04T01:02:49.665Z,50.78
2019-04-04T01:05:24.151Z,48.33
2019-04-04T01:07:55.583Z,44.70
2019-04-04T01:10:27.014Z,48.63
2019-04-04T01:12:58.631Z,49.13
2019-04-04T01:15:36.144Z,46.40
2019-04-04T01:18:07.620Z,59.23
2019-04-04T01:20:42.062Z,47.60
2019-04-04T01:23:13.685Z,53.80
2019-04-04T01:25:45.186Z,60.78
2019-04-04T01:28:17.618Z,59.38
2019-04-04T01:30:49.014Z,67.67
2019-04-04T01:33:21.517Z,75.03
2019-04-04T01:35:57.654Z,63.28
2019-04-04T01:38:38.362Z,53.68
2019-04-04T01:41:15.915Z,42.85
2019-04-04T01:43:50.077Z,47.58
2019-04-04T01:46:21.761Z,44.58
2019-04-04T01:48:53.276Z,41.37
2019-04-04T01:51:25.425Z,39.38
2019-04-04T01:53:59.013Z,43.95
2019-04-04T01:56:41.370Z,41.95
2019-04-04T01:59:32.636Z,40.38
2019-04-04T02:02:07.088Z,47.67
2019-04-04T02:04:40.149Z,49.90
2019-04-04T02:07:11.712Z,49.35
2019-04-04T02:09:44.193Z,47.38
2019-04-04T02:12:15.542Z,53.25
2019-04-04T02:14:46.770Z,52.73
2019-04-04T02:17:18.119Z,51.50
2019-04-04T02:19:49.427Z,48.30
2019-04-04T02:22:22.015Z,47.03
2019-04-04T02:24:53.977Z,50.92
2019-04-04T02:27:25.406Z,51.90
2019-04-04T02:29:56.857Z,56.63
2019-04-04T02:32:29.416Z,47.98
2019-04-04T02:35:01.694Z,40.83
2019-04-04T02:37:33.012Z,51.77
2019-04-04T02:40:08.898Z,55.83
2019-04-04T02:42:39.460Z,65.45
2019-04-04T02:45:10.752Z,74.60
2019-04-04T02:47:41.983Z,72.47
2019-04-04T02:50:13.452Z,81.57
2019-04-04T02:52:46.201Z,75.32
2019-04-04T02:55:17.685Z,59.63
2019-04-04T02:57:48.959Z,59.90
2019-04-04T03:00:20.257Z,59.65
2019-04-04T03:02:51.628Z,51.25
2019-04-04T03:05:22.686Z,55.67
2019-04-04T03:07:53.811Z,59.67
2019-04-04T03:10:25.169Z,71.82
2019-04-04T03:12:58.640Z,72.78
2019-04-04T03:15:29.709Z,70.67
2019-04-04T03:18:04.122Z,55.60
2019-04-04T03:20:33.880Z,55.55
2019-04-04T03:23:05.870Z,45.63
2019-04-04T03:25:37.746Z,65.97
2019-04-04T03:28:08.882Z,47.43
2019-04-04T03:30:41.363Z,48.83
2019-04-04T03:33:13.106Z,57.30
2019-04-04T03:35:45.297Z,54.13
2019-04-04T03:38:16.572Z,63.90
2019-04-04T03:40:48.255Z,53.15
2019-04-04T03:43:19.471Z,53.40
2019-04-04T03:45:50.717Z,63.45
2019-04-04T03:48:23.059Z,70.00
2019-04-04T03:50:57.154Z,60.85
2019-04-04T03:53:28.332Z,65.45
2019-04-04T03:56:01.228Z,58.20
2019-04-04T03:58:34.608Z,60.12
2019-04-04T04:01:06.016Z,50.80
2019-04-04T04:03:38.476Z,49.10
2019-04-04T04:06:10.379Z,52.75
2019-04-04T04:08:41.869Z,48.33
2019-04-04T04:11:13.421Z,51.15
2019-04-04T04:13:48.932Z,42.45
2019-04-04T04:16:17.625Z,43.50
2019-04-04T04:18:54.030Z,45.75
2019-04-04T04:21:23.230Z,48.00
2019-04-04T04:23:59.798Z,43.23
2019-04-04T04:26:34.131Z,41.45
2019-04-04T04:29:05.276Z,44.42
2019-04-04T04:31:37.030Z,39.67
2019-04-04T04:34:08.456Z,40.00
2019-04-04T04:36:41.132Z,35.88
2019-04-04T04:39:12.544Z,38.45
2019-04-04T04:41:45.099Z,35.95
2019-04-04T04:44:17.290Z,38.23
2019-04-04T04:46:51.071Z,40.35
2019-04-04T04:49:23.560Z,41.18
2019-04-04T04:51:55.225Z,43.92
2019-04-04T04:54:28.026Z,41.13
2019-04-04T04:57:04.796Z,40.20
2019-04-04T04:59:37.846Z,49.25
2019-04-04T05:02:09.504Z,53.52
2019-04-04T05:04:40.962Z,39.63
2019-04-04T05:07:12.130Z,36.30
2019-04-04T05:09:45.025Z,42.33
2019-04-04T05:12:17.397Z,40.38
2019-04-04T05:14:48.750Z,36.15
2019-04-04T05:17:19.999Z,39.92
2019-04-04T05:19:51.285Z,37.35
2019-04-04T05:22:22.545Z,36.40
2019-04-04T05:25:08.001Z,38.23
2019-04-04T05:27:27.187Z,28.87
2019-04-04T05:29:58.541Z,40.78
2019-04-04T05:32:29.948Z,35.05
2019-04-04T05:35:02.556Z,35.63
2019-04-04T05:37:37.968Z,45.05
2019-04-04T05:42:41.745Z,37.38
2019-04-04T05:45:14.460Z,43.45
2019-04-04T05:47:46.271Z,37.20
2019-04-04T05:50:17.464Z,33.10
2019-04-04T05:52:53.487Z,32.50
2019-04-04T05:55:24.959Z,37.85
2019-04-04T05:57:56.059Z,39.42
2019-04-04T06:00:28.236Z,41.92
2019-04-04T06:03:00.481Z,38.30
2019-04-04T06:05:32.074Z,44.23
2019-04-04T06:08:08.187Z,40.25
2019-04-04T06:10:39.206Z,38.85
2019-04-04T06:13:10.350Z,40.25
2019-04-04T06:15:42.081Z,37.25
2019-04-04T06:18:13.278Z,39.83
2019-04-04T06:20:44.454Z,37.58
2019-04-04T06:23:16.040Z,39.40
2019-04-04T06:25:47.618Z,44.70
2019-04-04T06:28:19.276Z,39.08
2019-04-04T06:30:53.308Z,49.53
2019-04-04T06:36:00.210Z,52.17
2019-04-04T06:38:33.508Z,40.48
2019-04-04T06:41:05.954Z,35.17
2019-04-04T06:43:37.745Z,37.75
2019-04-04T06:46:10.701Z,36.68
2019-04-04T06:48:42.338Z,31.77
2019-04-04T06:51:14.861Z,35.30
2019-04-04T06:53:47.082Z,38.90
2019-04-04T06:56:19.200Z,39.18
2019-04-04T06:58:50.830Z,36.68
2019-04-04T07:01:25.318Z,37.55
2019-04-04T07:03:59.525Z,35.33
2019-04-04T07:06:33.236Z,35.70
2019-04-04T07:09:07.337Z,30.32
2019-04-04T07:11:38.671Z,33.78
2019-04-04T07:14:10.491Z,39.48
2019-04-04T07:16:41.792Z,43.28
2019-04-04T07:19:15.035Z,36.88
2019-04-04T07:21:46.457Z,29.75
2019-04-04T07:24:17.687Z,32.67
2019-04-04T07:26:49.807Z,33.18
2019-04-04T07:29:23.012Z,31.02
2019-04-04T07:31:57.075Z,33.40
2019-04-04T07:34:28.523Z,30.40
2019-04-04T07:37:00.149Z,33.05
2019-04-04T07:39:32.823Z,73.37
2019-04-04T07:42:04.368Z,35.58
2019-04-04T07:44:35.628Z,47.40
2019-04-04T07:47:06.846Z,90.35
2019-04-04T07:49:40.187Z,26.93
2019-04-04T07:52:13.703Z,39.45
2019-04-04T07:54:47.867Z,32.90
2019-04-04T07:57:21.077Z,30.90
2019-04-04T07:59:52.455Z,36.30
2019-04-04T08:02:23.995Z,49.30
2019-04-04T08:04:57.443Z,147.93
2019-04-04T08:07:37.079Z,30.40
2019-04-04T08:10:19.982Z,25.85
2019-04-04T08:12:43.161Z,18.82
2019-04-04T08:15:21.061Z,20.48
2019-04-04T08:17:54.549Z,21.50
2019-04-04T08:20:45.977Z,15.00
2019-04-04T08:23:20.123Z,15.55
2019-04-04T08:25:52.971Z,17.55
2019-04-04T08:28:28.833Z,20.25
2019-04-04T08:31:02.143Z,22.70
2019-04-04T08:33:34.336Z,16.65
2019-04-04T08:36:06.570Z,16.37
2019-04-04T08:38:39.108Z,17.62
2019-04-04T08:41:12.476Z,17.37
2019-04-04T08:43:48.076Z,18.40
2019-04-04T08:46:20.234Z,17.57
2019-04-04T08:48:52.431Z,20.15
2019-04-04T08:51:23.611Z,12.45
2019-04-04T08:53:55.838Z,14.40
2019-04-04T08:56:27.322Z,12.50
2019-04-04T08:58:58.650Z,19.05
2019-04-04T09:01:30.994Z,15.13
2019-04-04T09:04:02.240Z,12.68
2019-04-04T09:06:34.549Z,12.07
2019-04-04T09:09:06.486Z,12.82
2019-04-04T09:11:39.884Z,14.23
2019-04-04T09:14:12.524Z,12.03
2019-04-04T09:16:45.604Z,14.10
2019-04-04T09:19:19.082Z,15.35
2019-04-04T09:21:50.600Z,13.80
2019-04-04T09:24:23.333Z,14.07
2019-04-04T09:26:54.796Z,18.30
2019-04-04T09:29:26.167Z,13.65
2019-04-04T09:31:57.628Z,16.65
2019-04-04T09:34:29.248Z,17.52
2019-04-04T09:37:01.723Z,17.45
2019-04-04T09:39:32.865Z,15.65
2019-04-04T09:42:07.274Z,14.07
2019-04-04T09:44:40.122Z,25.40
2019-04-04T09:47:12.853Z,21.45
2019-04-04T09:49:44.164Z,27.40
2019-04-04T09:52:15.566Z,16.60
2019-04-04T09:54:48.780Z,15.98
2019-04-04T09:59:53.685Z,13.50
2019-04-04T10:02:27.428Z,19.75
2019-04-04T10:04:58.633Z,16.57
2019-04-04T10:07:29.801Z,18.57
2019-04-04T10:10:01.090Z,19.70
2019-04-04T10:12:32.899Z,12.37
2019-04-04T10:15:06.760Z,11.75
2019-04-04T10:17:38.015Z,13.62
2019-04-04T10:20:09.216Z,16.32
2019-04-04T10:22:40.500Z,11.80
2019-04-04T10:25:11.688Z,16.37
2019-04-04T10:27:42.962Z,16.50
2019-04-04T10:30:14.171Z,20.80
2019-04-04T10:32:45.283Z,13.43
2019-04-04T10:35:16.527Z,20.27
2019-04-04T10:37:48.007Z,20.52
2019-04-04T10:40:20.350Z,19.00
2019-04-04T10:42:55.635Z,13.15
2019-04-04T10:45:26.808Z,15.70
2019-04-04T10:47:58.543Z,13.10
2019-04-04T10:50:30.304Z,15.58
2019-04-04T10:53:01.782Z,13.50
2019-04-04T10:58:07.203Z,38.58
2019-04-04T11:00:40.316Z,14.20
2019-04-04T11:03:11.608Z,15.35
2019-04-04T11:05:42.687Z,12.07
2019-04-04T11:08:14.950Z,16.48
2019-04-04T11:10:47.153Z,15.95
2019-04-04T11:13:18.361Z,16.25
2019-04-04T11:15:49.881Z,13.70
2019-04-04T11:18:24.812Z,17.98
2019-04-04T11:20:55.921Z,15.03
2019-04-04T11:23:27.353Z,12.25
2019-04-04T11:25:59.047Z,13.85
2019-04-04T11:28:33.172Z,16.15
2019-04-04T11:31:04.315Z,14.38
2019-04-04T11:33:36.094Z,13.62
2019-04-04T11:36:07.204Z,11.78
2019-04-04T11:38:39.563Z,12.90
2019-04-04T11:41:10.751Z,12.33
2019-04-04T11:43:44.110Z,16.32
2019-04-04T11:46:15.423Z,14.25
2019-04-04T11:48:48.872Z,13.03
2019-04-04T11:51:22.539Z,12.43
2019-04-04T11:53:54.036Z,12.23
2019-04-04T11:56:27.620Z,10.72
2019-04-04T11:59:00.947Z,20.10
2019-04-04T12:01:36.795Z,11.30
2019-04-04T12:04:08.135Z,13.93
2019-04-04T12:06:41.326Z,11.25
2019-04-04T12:09:12.701Z,10.58
2019-04-04T12:11:44.093Z,11.95
2019-04-04T12:14:16.669Z,12.03
2019-04-04T12:16:48.671Z,14.87
2019-04-04T12:19:19.979Z,12.37
2019-04-04T12:21:53.526Z,19.98
2019-04-04T12:24:24.674Z,16.52
2019-04-04T12:26:58.444Z,14.50
2019-04-04T12:32:01.396Z,17.73
2019-04-04T12:34:34.205Z,9.83
2019-04-04T12:37:06.492Z,16.20
2019-04-04T12:39:39.461Z,17.07
2019-04-04T12:42:10.878Z,12.03
2019-04-04T12:44:43.863Z,13.83
2019-04-04T12:47:15.440Z,10.95
2019-04-04T12:49:48.857Z,14.00
2019-04-04T12:52:21.054Z,15.63
2019-04-04T12:54:52.380Z,13.93
2019-04-04T12:57:23.885Z,14.28
2019-04-04T12:59:56.464Z,14.18
2019-04-04T13:02:28.068Z,33.60
2019-04-04T13:04:59.992Z,14.73
2019-04-04T13:10:11.894Z,12.95
2019-04-04T13:12:46.875Z,11.22
2019-04-04T13:15:20.812Z,26.45
2019-04-04T13:17:51.950Z,20.65
2019-04-04T13:20:23.276Z,14.60
2019-04-04T13:22:54.626Z,10.18
2019-04-04T13:25:25.909Z,32.65
2019-04-04T13:27:57.266Z,18.37
2019-04-04T13:30:30.997Z,13.25
2019-04-04T13:33:04.139Z,15.98
2019-04-04T13:35:37.932Z,15.03
2019-04-04T13:38:09.917Z,12.18
2019-04-04T13:40:45.798Z,13.35
2019-04-04T13:43:15.614Z,10.75
2019-04-04T13:45:48.695Z,10.10
2019-04-04T13:48:21.161Z,16.85
2019-04-04T13:50:52.918Z,16.62
2019-04-04T13:53:25.445Z,15.18
2019-04-04T13:55:59.140Z,16.25
2019-04-04T13:58:31.064Z,13.90
2019-04-04T14:01:02.277Z,31.85
2019-04-04T14:03:33.623Z,18.50
2019-04-04T14:06:05.858Z,11.60
2019-04-04T14:08:39.131Z,10.78
2019-04-04T14:11:10.671Z,10.72
2019-04-04T14:13:43.001Z,13.90
2019-04-04T14:16:14.581Z,13.85
2019-04-04T14:18:46.228Z,15.90
2019-04-04T14:21:17.366Z,10.63
2019-04-04T14:23:52.270Z,12.13
2019-04-04T14:26:25.277Z,15.48
2019-04-04T14:28:58.254Z,15.18
2019-04-04T14:31:31.134Z,12.03
2019-04-04T14:34:02.429Z,14.45
2019-04-04T14:36:34.569Z,12.60
2019-04-04T14:39:07.537Z,17.27
2019-04-04T14:44:11.384Z,17.27
2019-04-04T14:46:42.915Z,13.25
2019-04-04T14:49:15.933Z,11.88
2019-04-04T14:51:47.863Z,14.53
2019-04-04T14:54:21.921Z,13.62
2019-04-04T14:56:54.301Z,15.65
2019-04-04T14:59:27.866Z,16.67
2019-04-04T15:02:05.667Z,15.83
2019-04-04T15:04:36.812Z,15.63
2019-04-04T15:07:08.077Z,16.07
2019-04-04T15:09:39.587Z,15.93
2019-04-04T15:12:11.163Z,17.23
2019-04-04T15:14:44.669Z,20.27
2019-04-04T15:17:15.921Z,22.90
2019-04-04T15:19:47.054Z,18.42
2019-04-04T15:22:18.631Z,19.98
2019-04-04T15:24:59.808Z,21.12
2019-04-04T15:27:35.413Z,22.25
2019-04-04T15:30:07.640Z,20.23
2019-04-04T15:32:39.630Z,15.90
2019-04-04T15:35:16.267Z,14.78
2019-04-04T15:37:47.350Z,18.37
2019-04-04T15:40:19.811Z,16.52
2019-04-04T15:42:51.098Z,16.52
2019-04-04T15:45:22.325Z,32.80
2019-04-04T15:47:58.012Z,11.57
2019-04-04T15:50:31.117Z,17.50
2019-04-04T15:53:02.578Z,12.82
2019-04-04T15:55:35.317Z,11.38
2019-04-04T15:58:06.507Z,13.35
2019-04-04T16:00:37.558Z,16.35
2019-04-04T16:03:08.673Z,18.37
2019-04-04T16:05:41.104Z,13.68
2019-04-04T16:08:12.931Z,17.30
2019-04-04T16:10:44.547Z,18.20
2019-04-04T16:13:15.878Z,24.75
2019-04-04T16:15:53.651Z,19.10
2019-04-04T16:18:24.728Z,16.32
2019-04-04T16:20:55.775Z,21.77
2019-04-04T16:23:26.832Z,30.60
2019-04-04T16:25:59.179Z,22.35
2019-04-04T16:28:31.094Z,29.70
2019-04-04T16:31:04.611Z,24.55
2019-04-04T16:33:36.214Z,36.00
2019-04-04T16:36:07.415Z,26.23
2019-04-04T16:38:38.813Z,28.02
2019-04-04T16:41:10.078Z,30.17
2019-04-04T16:43:42.302Z,43.02
2019-04-04T16:46:13.374Z,39.30
2019-04-04T16:48:46.542Z,42.73
2019-04-04T16:51:17.620Z,38.77
2019-04-04T16:53:49.159Z,36.08
2019-04-04T16:56:20.587Z,41.50
2019-04-04T16:58:51.942Z,35.43
2019-04-04T17:01:23.351Z,39.10
2019-04-04T17:04:01.914Z,36.30
2019-04-04T17:06:29.608Z,29.70
2019-04-04T17:09:01.832Z,27.40
2019-04-04T17:11:34.538Z,35.70
2019-04-04T17:14:11.081Z,51.65
2019-04-04T17:16:42.160Z,56.40
2019-04-04T17:19:13.575Z,59.23
2019-04-04T17:21:44.796Z,70.72
2019-04-04T17:24:16.468Z,72.35
2019-04-04T17:26:48.667Z,79.97
2019-04-04T17:29:19.764Z,80.00
2019-04-04T17:31:51.484Z,90.85
2019-04-04T17:34:22.670Z,83.65
2019-04-04T17:36:54.143Z,95.90
2019-04-04T17:39:25.566Z,93.17
2019-04-04T17:41:56.962Z,84.37
2019-04-04T17:44:28.534Z,96.95
2019-04-04T17:46:59.863Z,91.60
2019-04-04T17:49:32.737Z,87.90
2019-04-04T17:52:04.538Z,96.40
2019-04-04T17:54:36.392Z,105.85
2019-04-04T17:57:07.599Z,102.27
2019-04-04T17:59:39.077Z,110.80
2019-04-04T18:02:10.546Z,112.12
2019-04-04T18:04:48.121Z,113.08
2019-04-04T18:07:14.926Z,117.95
2019-04-04T18:09:46.455Z,123.47
2019-04-04T18:12:19.320Z,112.40
2019-04-04T18:14:52.153Z,124.20
2019-04-04T18:17:25.104Z,113.68
2019-04-04T18:19:56.701Z,115.52
2019-04-04T18:22:28.087Z,114.77
2019-04-04T18:24:59.640Z,147.75
2019-04-04T18:27:32.018Z,134.35
2019-04-04T18:30:05.031Z,113.08
2019-04-04T18:32:36.297Z,117.82
2019-04-04T18:35:11.712Z,113.45
2019-04-04T18:37:43.043Z,135.95
2019-04-04T18:40:15.976Z,126.25
2019-04-04T18:42:53.004Z,153.45
2019-04-04T18:45:22.120Z,162.93
2019-04-04T18:47:53.682Z,154.55
2019-04-04T18:50:26.852Z,164.03
2019-04-04T18:52:58.831Z,168.40
2019-04-04T18:55:30.210Z,167.30
2019-04-04T18:58:01.532Z,154.03
2019-04-04T19:00:32.973Z,160.40
2019-04-04T19:03:05.756Z,177.82
2019-04-04T19:05:36.913Z,157.70
2019-04-04T19:08:08.561Z,163.75
2019-04-04T19:10:40.429Z,164.72
2019-04-04T19:13:12.385Z,149.20
2019-04-04T19:15:43.736Z,161.90
2019-04-04T19:18:14.981Z,168.37
2019-04-04T19:20:46.424Z,167.20
2019-04-04T19:23:17.806Z,159.18
2019-04-04T19:25:49.325Z,168.17
2019-04-04T19:28:20.733Z,233.15
2019-04-04T19:30:52.617Z,185.15
2019-04-04T19:33:23.997Z,235.17
2019-04-04T19:35:56.242Z,243.65
2019-04-04T19:38:27.344Z,190.73
2019-04-04T19:40:58.796Z,174.77
2019-04-04T19:43:30.677Z,151.37
2019-04-04T19:46:02.221Z,168.20
2019-04-04T19:48:33.458Z,151.42
2019-04-04T19:51:05.745Z,114.25
2019-04-04T19:53:37.356Z,138.18
2019-04-04T19:56:10.867Z,112.00
2019-04-04T20:01:13.716Z,101.97
2019-04-04T20:03:45.101Z,88.52
2019-04-04T20:06:16.335Z,77.45
2019-04-04T20:08:50.905Z,78.05
2019-04-04T20:11:20.337Z,80.85
2019-04-04T20:13:52.196Z,129.35
2019-04-04T20:16:23.505Z,111.88
2019-04-04T20:18:55.693Z,111.37
2019-04-04T20:21:26.985Z,101.60
2019-04-04T20:23:59.090Z,108.70
2019-04-04T20:26:30.340Z,94.03
2019-04-04T20:29:01.785Z,90.83
2019-04-04T20:31:33.840Z,103.58
2019-04-04T20:34:06.301Z,110.05
2019-04-04T20:36:39.678Z,98.40
2019-04-04T20:39:10.786Z,85.92
2019-04-04T20:41:42.082Z,101.12
2019-04-04T20:44:13.218Z,89.03
2019-04-04T20:46:46.129Z,87.65
2019-04-04T20:49:17.525Z,85.32
2019-04-04T20:51:49.552Z,74.87
2019-04-04T20:54:20.796Z,83.03
2019-04-04T20:56:51.947Z,121.07
2019-04-04T20:59:24.620Z,122.90
2019-04-04T21:01:55.748Z,117.08
2019-04-04T21:04:26.903Z,128.35
2019-04-04T21:06:57.996Z,128.20
2019-04-04T21:09:30.646Z,111.75
2019-04-04T21:12:02.738Z,101.67
2019-04-04T21:14:33.943Z,123.35
2019-04-04T21:17:05.219Z,109.20
2019-04-04T21:19:36.312Z,105.15
2019-04-04T21:22:07.536Z,89.22
2019-04-04T21:24:38.364Z,90.25
2019-04-04T21:27:09.510Z,94.40
2019-04-04T21:29:41.639Z,97.15
2019-04-04T21:32:12.756Z,85.17
2019-04-04T21:34:45.630Z,95.32
2019-04-04T21:37:16.712Z,89.25
2019-04-04T21:39:47.856Z,101.55
2019-04-04T21:42:18.971Z,94.17
2019-04-04T21:44:50.051Z,135.37
2019-04-04T21:47:21.151Z,118.40
2019-04-04T21:49:53.832Z,110.20
2019-04-04T21:52:25.900Z,112.80
2019-04-04T21:54:57.088Z,108.60
2019-04-04T21:57:29.015Z,106.20
2019-04-04T22:00:00.221Z,108.10
2019-04-04T22:02:32.454Z,109.87
2019-04-04T22:05:05.102Z,115.20
2019-04-04T22:07:36.248Z,116.62
2019-04-04T22:10:08.279Z,133.60
2019-04-04T22:12:39.477Z,125.33
2019-04-04T22:15:10.683Z,117.53
2019-04-04T22:17:41.608Z,120.95
2019-04-04T22:20:13.547Z,120.50
2019-04-04T22:22:44.814Z,113.30
2019-04-04T22:25:16.811Z,111.32
2019-04-04T22:27:47.879Z,123.13
2019-04-04T22:30:19.110Z,114.22
2019-04-04T22:32:50.222Z,124.35
2019-04-04T22:35:21.329Z,115.05
2019-04-04T22:37:53.439Z,121.67
2019-04-04T22:40:24.591Z,122.75
2019-04-04T22:42:55.726Z,114.32
2019-04-04T22:45:27.668Z,117.03
2019-04-04T22:47:58.882Z,111.55
2019-04-04T22:50:30.025Z,109.92
2019-04-04T22:53:02.090Z,103.20
2019-04-04T22:55:33.257Z,113.35
2019-04-04T22:58:04.681Z,140.37
2019-04-04T23:00:36.795Z,120.87
2019-04-04T23:03:08.126Z,122.07
2019-04-04T23:05:39.620Z,99.47
2019-04-04T23:08:10.825Z,84.13
2019-04-04T23:10:41.957Z,132.07
2019-04-04T23:13:13.219Z,135.63
2019-04-04T23:15:44.392Z,136.92
2019-04-04T23:18:15.622Z,124.20
2019-04-04T23:20:46.832Z,133.40
2019-04-04T23:23:19.905Z,145.60
2019-04-04T23:25:50.897Z,123.23
2019-04-04T23:28:21.975Z,117.50
2019-04-04T23:30:52.961Z,141.43
2019-04-04T23:33:24.168Z,130.57
2019-04-04T23:35:55.231Z,137.68
2019-04-04T23:38:26.364Z,123.70
2019-04-04T23:40:57.469Z,139.12
2019-04-04T23:43:28.902Z,133.47
2019-04-04T23:46:00.375Z,144.50
2019-04-04T23:48:31.515Z,106.32
2019-04-04T23:51:02.784Z,110.68
2019-04-04T23:53:34.992Z,101.18
2019-04-04T23:56:06.797Z,101.78
2019-04-04T23:58:38.222Z,109.78
